Time;durP1;ratioP1;P1;durP2;ratioP2;P2;SDS_P1;SDS_P2;PMS_P1;PMS_P2;Temp;Humidity;BMP_temperature;BMP_pressure;BME280_temperature;BME280_humidity;BME280_pressure;Samples;Min_cycle;Max_cycle;Signal;HPM_P1;HPM_P2
2021/04/14 00:00:40;;;;;;;4.47;1.90;;;19.90;24.60;;;;;;5165921;27;20471;-41
2021/04/14 00:03:15;;;;;;;6.70;2.13;;;19.70;24.80;;;;;;5166626;27;20494;-40
2021/04/14 00:05:47;;;;;;;5.47;1.80;;;19.50;25.50;;;;;;5165737;27;20453;-39
2021/04/14 00:08:17;;;;;;;4.57;1.70;;;19.60;25.50;;;;;;5165781;27;20423;-40
2021/04/14 00:10:48;;;;;;;8.13;2.27;;;19.40;24.90;;;;;;5165743;27;20459;-35
2021/04/14 00:13:22;;;;;;;3.40;1.60;;;19.30;25.30;;;;;;5164960;27;20418;-39
2021/04/14 00:15:54;;;;;;;4.80;2.20;;;19.30;24.90;;;;;;5163080;27;20479;-40
2021/04/14 00:18:24;;;;;;;2.00;1.30;;;19.30;24.70;;;;;;5166108;27;20423;-40
2021/04/14 00:20:55;;;;;;;2.70;1.20;;;19.20;24.40;;;;;;5166151;27;20463;-39
2021/04/14 00:23:25;;;;;;;3.90;1.57;;;19.10;24.40;;;;;;5165264;27;20515;-40
2021/04/14 00:25:55;;;;;;;2.53;1.53;;;19.20;24.60;;;;;;5163239;27;20505;-40
2021/04/14 00:28:26;;;;;;;1.70;1.40;;;19.10;25.00;;;;;;5149302;27;20873;-41
2021/04/14 00:30:56;;;;;;;1.63;1.30;;;19.10;24.60;;;;;;5159334;27;20503;-40
2021/04/14 00:33:26;;;;;;;3.50;1.87;;;19.10;25.10;;;;;;5151863;27;20418;-41
2021/04/14 00:35:58;;;;;;;1.87;1.37;;;19.10;24.50;;;;;;5154053;27;20843;-41
2021/04/14 00:38:28;;;;;;;7.83;1.70;;;18.90;24.30;;;;;;5154033;27;20456;-40
2021/04/14 00:41:01;;;;;;;7.97;2.17;;;18.70;23.70;;;;;;5163896;27;20475;-40
2021/04/14 00:43:33;;;;;;;6.50;1.63;;;18.60;24.70;;;;;;5164537;27;20426;-40
2021/04/14 00:46:05;;;;;;;1.87;1.33;;;18.60;24.50;;;;;;5164972;27;20423;-40
2021/04/14 00:48:35;;;;;;;1.60;1.13;;;18.60;24.50;;;;;;5148318;27;20419;-40
2021/04/14 00:51:08;;;;;;;3.07;1.60;;;18.50;24.90;;;;;;5165533;27;20452;-40
2021/04/14 00:53:38;;;;;;;7.93;1.87;;;18.50;25.70;;;;;;5165305;27;20470;-39
2021/04/14 00:56:08;;;;;;;3.27;1.80;;;18.50;25.30;;;;;;5164493;27;20490;-40
2021/04/14 00:58:38;;;;;;;6.57;1.90;;;18.40;26.10;;;;;;5164357;27;20447;-39
2021/04/14 01:01:08;;;;;;;5.00;2.17;;;18.40;25.90;;;;;;5164968;27;20452;-39
2021/04/14 01:03:39;;;;;;;10.57;1.60;;;18.30;25.90;;;;;;5164690;27;20628;-41
2021/04/14 01:06:12;;;;;;;8.67;1.67;;;18.30;25.50;;;;;;5164757;27;20455;-41
2021/04/14 01:08:43;;;;;;;6.70;1.70;;;18.20;25.60;;;;;;5165055;27;20502;-40
2021/04/14 01:11:14;;;;;;;3.73;1.80;;;18.10;25.70;;;;;;5164498;27;20419;-39
2021/04/14 01:13:45;;;;;;;4.67;2.70;;;18.00;26.30;;;;;;5164876;27;20500;-40
2021/04/14 01:16:15;;;;;;;4.97;2.10;;;18.00;25.80;;;;;;5162043;27;20513;-40
2021/04/14 01:18:45;;;;;;;2.53;1.60;;;18.00;26.00;;;;;;5165254;27;20432;-40
2021/04/14 01:21:25;;;;;;;6.47;2.33;;;17.90;26.30;;;;;;5164412;27;20456;-40
2021/04/14 01:23:55;;;;;;;4.87;2.00;;;17.90;27.10;;;;;;5165123;27;20470;-40
2021/04/14 01:26:25;;;;;;;3.33;1.53;;;17.90;26.50;;;;;;5164031;27;20444;-40
2021/04/14 01:28:55;;;;;;;2.53;1.73;;;17.90;26.70;;;;;;5165104;27;20440;-41
2021/04/14 01:31:32;;;;;;;3.63;1.70;;;17.90;26.90;;;;;;5163973;27;20474;-40
2021/04/14 01:34:04;;;;;;;7.20;1.73;;;17.80;26.30;;;;;;5164799;27;20463;-41
2021/04/14 01:36:35;;;;;;;3.17;2.13;;;17.80;26.20;;;;;;5164627;27;20445;-41
2021/04/14 01:39:07;;;;;;;3.83;1.90;;;17.80;27.90;;;;;;5164076;27;20450;-41
2021/04/14 01:41:39;;;;;;;7.07;1.50;;;17.80;27.20;;;;;;5163226;27;20479;-39
2021/04/14 01:44:10;;;;;;;7.47;2.30;;;17.70;26.10;;;;;;5164886;27;20534;-41
2021/04/14 01:46:42;;;;;;;4.57;1.53;;;17.70;26.50;;;;;;5164023;27;20464;-38
2021/04/14 01:49:13;;;;;;;5.03;1.70;;;17.70;26.40;;;;;;5146479;27;20421;-40
2021/04/14 01:51:44;;;;;;;2.67;1.40;;;17.60;27.40;;;;;;5164331;27;20456;-40
2021/04/14 01:54:14;;;;;;;3.67;2.00;;;17.50;26.50;;;;;;5164776;27;20422;-39
2021/04/14 01:56:44;;;;;;;5.33;1.90;;;17.50;26.50;;;;;;5163336;27;20483;-39
2021/04/14 01:59:14;;;;;;;3.27;1.97;;;17.40;26.50;;;;;;5164808;27;20455;-39
2021/04/14 02:01:44;;;;;;;3.33;1.60;;;17.40;26.30;;;;;;5164375;27;20430;-41
2021/04/14 02:04:15;;;;;;;2.10;1.90;;;17.30;26.10;;;;;;5162234;27;20475;-39
2021/04/14 02:06:46;;;;;;;2.83;1.80;;;17.20;26.00;;;;;;5158166;27;21015;-40
2021/04/14 02:09:17;;;;;;;1.73;1.50;;;17.20;26.30;;;;;;5164304;27;20463;-40
2021/04/14 02:11:47;;;;;;;2.63;1.70;;;17.10;26.90;;;;;;5163091;27;20456;-40
2021/04/14 02:14:17;;;;;;;7.53;2.53;;;17.10;26.80;;;;;;5164411;27;20443;-38
2021/04/14 02:16:47;;;;;;;4.73;1.67;;;17.00;26.90;;;;;;5162203;27;20515;-39
2021/04/14 02:19:17;;;;;;;7.50;1.53;;;16.90;26.40;;;;;;5164219;27;20471;-39
2021/04/14 02:21:49;;;;;;;1.83;1.30;;;16.90;27.90;;;;;;5163938;27;20987;-37
2021/04/14 02:24:19;;;;;;;1.57;1.33;;;16.80;27.30;;;;;;5163552;27;20448;-38
2021/04/14 02:26:49;;;;;;;3.60;1.83;;;16.70;26.90;;;;;;5163029;27;20444;-39
2021/04/14 02:29:19;;;;;;;4.20;1.87;;;16.70;26.20;;;;;;5164250;27;20436;-39
2021/04/14 02:31:49;;;;;;;1.70;1.30;;;16.60;26.40;;;;;;5163212;27;22147;-40
2021/04/14 02:34:19;;;;;;;2.87;1.73;;;16.60;27.60;;;;;;5158810;27;20443;-35
2021/04/14 02:36:50;;;;;;;8.93;1.50;;;16.50;27.40;;;;;;5163522;27;20443;-39
2021/04/14 02:39:20;;;;;;;2.70;1.30;;;16.40;28.20;;;;;;5164350;27;20456;-38
2021/04/14 02:41:51;;;;;;;4.20;1.63;;;16.20;27.80;;;;;;5162424;27;20471;-38
2021/04/14 02:44:21;;;;;;;3.40;1.60;;;16.20;28.10;;;;;;5148984;27;20439;-40
2021/04/14 02:46:51;;;;;;;4.47;2.10;;;16.10;28.10;;;;;;5163783;27;20509;-40
2021/04/14 02:49:22;;;;;;;3.27;2.00;;;16.00;28.10;;;;;;5163410;27;20470;-40
2021/04/14 02:51:54;;;;;;;6.30;2.13;;;16.00;28.60;;;;;;5163516;27;20950;-41
2021/04/14 02:54:24;;;;;;;3.13;2.03;;;15.90;29.20;;;;;;5158994;27;20439;-39
2021/04/14 02:56:54;;;;;;;3.03;1.70;;;15.70;30.20;;;;;;5162928;27;20451;-39
2021/04/14 02:59:24;;;;;;;2.53;2.27;;;15.50;32.10;;;;;;5163628;27;20478;-39
2021/04/14 03:01:54;;;;;;;3.00;1.90;;;15.40;31.60;;;;;;5162564;27;21047;-39
2021/04/14 03:04:25;;;;;;;5.00;2.67;;;15.30;32.20;;;;;;5163898;27;20459;-40
2021/04/14 03:06:56;;;;;;;4.43;1.97;;;15.00;32.90;;;;;;5167551;27;20473;-39
2021/04/14 03:09:26;;;;;;;2.20;2.00;;;14.90;32.20;;;;;;5166785;27;20452;-38
2021/04/14 03:11:56;;;;;;;2.07;1.87;;;14.90;31.10;;;;;;5166259;27;20751;-37
2021/04/14 03:14:26;;;;;;;3.93;2.40;;;14.80;33.00;;;;;;5167825;27;20527;-36
2021/04/14 03:16:57;;;;;;;2.50;2.30;;;14.70;33.70;;;;;;5148511;27;20927;-40
2021/04/14 03:19:27;;;;;;;1.70;1.60;;;14.50;35.10;;;;;;5167087;27;20935;-40
2021/04/14 03:21:58;;;;;;;3.70;1.93;;;14.40;34.20;;;;;;5165881;27;20451;-40
2021/04/14 03:24:28;;;;;;;2.17;1.80;;;14.20;36.10;;;;;;5167329;27;20440;-38
2021/04/14 03:26:58;;;;;;;2.57;1.73;;;14.10;35.70;;;;;;5166847;27;20444;-40
2021/04/14 03:29:28;;;;;;;2.87;1.70;;;14.00;36.10;;;;;;5166290;27;20474;-39
2021/04/14 03:31:58;;;;;;;2.17;1.93;;;13.90;35.90;;;;;;5166548;27;20470;-40
2021/04/14 03:34:28;;;;;;;3.00;1.93;;;13.80;38.00;;;;;;5163024;27;20538;-39
2021/04/14 03:36:59;;;;;;;2.67;2.27;;;13.80;38.90;;;;;;5165001;27;20547;-40
2021/04/14 03:39:30;;;;;;;3.20;2.23;;;13.60;36.70;;;;;;5162928;27;20448;-39
2021/04/14 03:42:01;;;;;;;3.70;2.10;;;13.60;37.70;;;;;;5161988;27;20440;-39
2021/04/14 03:44:33;;;;;;;3.47;2.47;;;13.60;36.70;;;;;;5167005;27;20531;-40
2021/04/14 03:47:03;;;;;;;3.50;2.47;;;13.50;37.30;;;;;;5155809;27;20785;-39
2021/04/14 03:49:34;;;;;;;3.70;2.10;;;13.40;38.90;;;;;;5165496;27;20855;-39
2021/04/14 03:52:06;;;;;;;5.70;2.43;;;13.30;38.30;;;;;;5165872;27;20444;-39
2021/04/14 03:54:36;;;;;;;5.30;1.73;;;13.30;37.40;;;;;;5165752;27;20559;-35
2021/04/14 03:57:06;;;;;;;3.27;2.17;;;13.20;38.10;;;;;;5163022;27;20512;-39
2021/04/14 03:59:36;;;;;;;2.63;2.00;;;13.10;37.30;;;;;;5165228;27;20448;-39
2021/04/14 04:02:07;;;;;;;2.00;1.77;;;13.10;38.20;;;;;;5165562;27;20441;-38
2021/04/14 04:04:37;;;;;;;3.50;2.23;;;13.00;39.30;;;;;;5165666;27;20493;-39
2021/04/14 04:07:08;;;;;;;2.33;1.93;;;13.00;38.60;;;;;;5164531;27;20466;-38
2021/04/14 04:09:41;;;;;;;6.27;1.90;;;12.90;38.70;;;;;;5158296;27;20440;-38
2021/04/14 04:12:12;;;;;;;2.50;2.30;;;12.80;39.10;;;;;;5158903;27;20444;-38
2021/04/14 04:14:48;;;;;;;3.10;2.03;;;12.70;38.60;;;;;;5163711;27;20502;-39
2021/04/14 04:17:19;;;;;;;2.17;1.70;;;12.70;38.70;;;;;;5150993;27;20855;-39
2021/04/14 04:19:50;;;;;;;4.90;2.00;;;12.60;39.80;;;;;;5165766;27;20531;-36
2021/04/14 04:22:22;;;;;;;2.10;1.90;;;12.60;40.80;;;;;;5165208;27;20440;-39
2021/04/14 04:24:53;;;;;;;2.87;1.60;;;12.40;42.70;;;;;;5164534;27;20444;-39
2021/04/14 04:27:23;;;;;;;2.67;1.50;;;12.40;41.70;;;;;;5159936;27;20474;-37
2021/04/14 04:29:53;;;;;;;3.43;1.93;;;12.40;40.00;;;;;;5165985;27;20436;-39
2021/04/14 04:32:23;;;;;;;9.13;2.00;;;12.40;40.00;;;;;;5162670;27;20544;-40
2021/04/14 04:34:53;;;;;;;2.70;2.10;;;12.40;41.60;;;;;;5164800;27;20471;-39
2021/04/14 04:37:24;;;;;;;4.00;1.90;;;12.20;41.10;;;;;;5165632;27;20500;-37
2021/04/14 04:39:55;;;;;;;2.00;1.90;;;12.20;42.00;;;;;;5165357;27;20479;-40
2021/04/14 04:42:45;;;;;;;2.60;1.87;;;12.20;43.00;;;;;;5164161;27;21382;-38
2021/04/14 04:45:16;;;;;;;2.27;1.80;;;12.10;44.90;;;;;;5166136;27;20443;-40
2021/04/14 04:47:46;;;;;;;3.30;1.93;;;12.00;41.70;;;;;;5157600;27;20453;-40
2021/04/14 04:50:17;;;;;;;2.87;2.00;;;12.00;39.90;;;;;;5148837;27;20446;-36
2021/04/14 04:52:48;;;;;;;2.30;1.80;;;11.90;40.60;;;;;;5162739;27;20489;-36
2021/04/14 04:55:18;;;;;;;2.40;2.20;;;12.00;40.90;;;;;;5165735;27;20487;-37
2021/04/14 04:57:48;;;;;;;2.30;2.10;;;12.00;39.00;;;;;;5164602;27;20447;-41
2021/04/14 05:00:19;;;;;;;2.93;2.10;;;12.00;41.70;;;;;;5164192;27;20574;-38
2021/04/14 05:02:50;;;;;;;1.97;1.87;;;11.90;41.60;;;;;;5164707;27;20536;-39
2021/04/14 05:05:24;;;;;;;4.50;2.30;;;11.80;41.90;;;;;;5164574;27;20531;-38
2021/04/14 05:07:55;;;;;;;1.90;1.80;;;11.80;42.40;;;;;;5165012;27;20432;-40
2021/04/14 05:10:26;;;;;;;2.53;2.33;;;11.70;43.90;;;;;;5166650;27;20509;-40
2021/04/14 05:12:56;;;;;;;3.17;1.93;;;11.60;43.90;;;;;;5163467;27;20448;-40
2021/04/14 05:15:28;;;;;;;3.73;2.17;;;11.50;44.70;;;;;;5165276;27;20472;-37
2021/04/14 05:17:58;;;;;;;2.50;2.30;;;11.50;47.00;;;;;;5164543;27;20452;-39
2021/04/14 05:20:29;;;;;;;3.53;2.27;;;11.40;46.70;;;;;;5165748;27;20504;-36
2021/04/14 05:23:00;;;;;;;5.43;2.23;;;11.40;48.10;;;;;;5164960;27;20484;-38
2021/04/14 05:25:31;;;;;;;2.03;1.70;;;11.30;47.10;;;;;;5165749;27;20531;-38
2021/04/14 05:28:05;;;;;;;3.30;2.17;;;11.20;45.90;;;;;;5163894;27;20516;-35
2021/04/14 05:30:35;;;;;;;3.20;2.03;;;11.10;44.90;;;;;;5165801;27;20450;-39
2021/04/14 05:33:06;;;;;;;2.15;2.05;;;11.10;45.80;;;;;;5165256;27;20448;-37
2021/04/14 05:35:37;;;;;;;3.23;2.20;;;11.10;48.10;;;;;;5164661;27;20267;-39
2021/04/14 05:38:08;;;;;;;2.95;2.22;;;11.00;47.30;;;;;;5165148;27;20440;-38
2021/04/14 05:40:39;;;;;;;2.22;2.03;;;10.90;47.60;;;;;;5165998;27;20214;-39
2021/04/14 05:43:18;;;;;;;2.75;2.30;;;10.80;49.20;;;;;;5163641;27;20224;-37
2021/04/14 05:45:53;;;;;;;2.67;2.47;;;10.80;49.70;;;;;;5164864;27;20194;-38
2021/04/14 05:48:23;;;;;;;2.70;2.20;;;10.70;49.80;;;;;;5154172;27;20237;-37
2021/04/14 05:50:55;;;;;;;2.47;2.28;;;10.60;49.50;;;;;;5164802;27;20206;-35
2021/04/14 05:53:26;;;;;;;2.38;2.10;;;10.50;50.80;;;;;;5164229;27;20211;-38
2021/04/14 05:55:56;;;;;;;3.35;2.30;;;10.50;51.40;;;;;;5164680;27;20348;-38
2021/04/14 05:58:26;;;;;;;2.00;1.90;;;10.40;50.40;;;;;;5163659;27;20194;-37
2021/04/14 06:00:56;;;;;;;3.25;2.20;;;10.40;51.60;;;;;;5164481;27;20195;-35
2021/04/14 06:03:27;;;;;;;2.30;2.00;;;10.40;51.80;;;;;;5164439;27;20209;-36
2021/04/14 06:05:58;;;;;;;2.47;2.25;;;10.40;53.90;;;;;;5164306;27;20243;-37
2021/04/14 06:08:31;;;;;;;2.88;2.03;;;10.40;51.90;;;;;;5164336;27;20178;-35
2021/04/14 06:11:04;;;;;;;2.90;2.00;;;10.30;50.80;;;;;;5165077;27;20198;-39
2021/04/14 06:13:35;;;;;;;2.47;2.28;;;10.30;52.50;;;;;;5163853;27;20209;-39
2021/04/14 06:16:08;;;;;;;3.33;2.00;;;10.20;53.90;;;;;;5164079;27;20257;-38
2021/04/14 06:18:38;;;;;;;3.20;2.53;;;10.10;53.00;;;;;;5164092;27;20191;-39
2021/04/14 06:21:08;;;;;;;2.92;2.72;;;10.10;53.20;;;;;;5165056;27;20198;-38
2021/04/14 06:23:40;;;;;;;3.67;3.40;;;10.10;53.70;;;;;;5165082;27;20217;-38
2021/04/14 06:26:18;;;;;;;3.92;3.63;;;10.10;51.30;;;;;;5163966;27;20203;-37
2021/04/14 06:28:48;;;;;;;2.72;2.53;;;10.10;50.20;;;;;;5164157;27;20191;-37
2021/04/14 06:31:18;;;;;;;2.38;2.17;;;10.20;48.40;;;;;;5164033;27;20198;-39
2021/04/14 06:33:51;;;;;;;2.30;2.10;;;10.20;47.90;;;;;;5164491;27;20270;-38
2021/04/14 06:36:21;;;;;;;1.60;1.50;;;10.30;47.10;;;;;;5163894;27;20214;-38
2021/04/14 06:38:53;;;;;;;1.80;1.63;;;10.40;45.60;;;;;;5165261;27;20212;-37
2021/04/14 06:41:57;;;;;;;3.17;2.97;;;10.50;44.90;;;;;;5167647;27;20255;-39
2021/04/14 06:44:47;;;;;;;3.40;1.92;;;10.50;45.20;;;;;;5158400;27;20190;-38
2021/04/14 06:47:25;;;;;;;2.45;1.90;;;10.50;44.50;;;;;;5161912;27;20203;-35
2021/04/14 06:50:02;;;;;;;2.65;2.00;;;10.50;44.20;;;;;;5158865;27;20190;-36
2021/04/14 06:52:36;;;;;;;2.28;2.10;;;10.50;44.40;;;;;;5168269;27;20235;-35
2021/04/14 06:55:11;;;;;;;2.10;1.90;;;10.50;44.40;;;;;;5167014;27;20270;-38
2021/04/14 06:57:45;;;;;;;2.28;1.90;;;10.50;45.30;;;;;;5166651;27;20194;-35
2021/04/14 07:00:24;;;;;;;2.20;2.10;;;10.40;46.60;;;;;;5168596;27;20554;-39
2021/04/14 07:02:57;;;;;;;2.58;1.98;;;10.30;48.00;;;;;;5168038;27;20259;-38
2021/04/14 07:05:32;;;;;;;2.42;2.22;;;10.20;48.40;;;;;;5167286;27;20645;-37
2021/04/14 07:08:06;;;;;;;3.00;2.50;;;10.00;48.00;;;;;;5167570;27;20203;-37
2021/04/14 07:10:39;;;;;;;2.50;2.30;;;10.00;49.60;;;;;;5168075;27;20194;-38
2021/04/14 07:13:11;;;;;;;2.72;2.20;;;9.90;51.30;;;;;;5166121;27;20198;-39
2021/04/14 07:15:41;;;;;;;3.65;2.40;;;9.80;52.40;;;;;;5167847;27;20218;-37
2021/04/14 07:18:26;;;;;;;3.00;2.30;;;9.70;52.50;;;;;;5167254;27;20205;-38
2021/04/14 07:21:04;;;;;;;3.35;2.45;;;9.60;53.10;;;;;;5167484;27;20462;-38
2021/04/14 07:23:47;;;;;;;2.85;2.25;;;9.60;54.00;;;;;;5167591;27;20224;-38
2021/04/14 07:26:23;;;;;;;3.03;2.60;;;9.50;54.70;;;;;;5166975;27;20296;-37
2021/04/14 07:29:07;;;;;;;2.85;2.65;;;9.50;56.80;;;;;;5167089;27;20244;-37
2021/04/14 07:31:41;;;;;;;3.08;2.50;;;9.50;57.80;;;;;;5167422;27;20260;-36
2021/04/14 07:34:25;;;;;;;3.22;3.03;;;9.50;57.00;;;;;;5167814;27;20195;-37
2021/04/14 07:37:00;;;;;;;4.65;2.80;;;9.40;59.10;;;;;;5166541;27;20226;-38
2021/04/14 07:39:36;;;;;;;3.72;3.42;;;9.30;59.70;;;;;;5156304;27;20213;-35
2021/04/14 07:42:30;;;;;;;5.65;3.15;;;9.20;59.40;;;;;;5166235;27;20206;-38
2021/04/14 07:45:18;;;;;;;4.07;2.78;;;9.20;59.70;;;;;;5167140;27;20229;-35
2021/04/14 07:47:52;;;;;;;4.20;2.92;;;9.10;60.50;;;;;;5163345;27;20207;-37
2021/04/14 07:50:28;;;;;;;5.57;3.30;;;9.20;60.10;;;;;;5166900;27;20621;-38
2021/04/14 07:52:58;;;;;;;3.30;2.88;;;9.10;60.00;;;;;;5166065;27;20270;-36
2021/04/14 07:55:31;;;;;;;3.20;2.90;;;9.30;59.20;;;;;;5166535;27;20218;-38
2021/04/14 07:58:14;;;;;;;4.10;3.05;;;9.40;59.90;;;;;;5166000;27;20194;-34
2021/04/14 08:00:46;;;;;;;4.43;2.60;;;9.40;59.20;;;;;;5166858;27;20191;-35
2021/04/14 08:03:23;;;;;;;3.10;2.90;;;9.40;59.40;;;;;;5165424;27;20202;-37
2021/04/14 08:05:53;;;;;;;3.38;3.05;;;9.30;59.60;;;;;;5163961;27;20231;-34
2021/04/14 08:08:31;;;;;;;5.07;3.17;;;9.30;58.60;;;;;;5166070;27;20216;-38
2021/04/14 08:11:04;;;;;;;3.30;3.10;;;9.30;57.40;;;;;;5166987;27;20244;-38
2021/04/14 08:13:39;;;;;;;3.72;3.08;;;9.20;60.10;;;;;;5165798;27;20198;-36
2021/04/14 08:16:19;;;;;;;4.35;3.60;;;9.10;59.90;;;;;;5166509;27;20698;-38
2021/04/14 08:19:02;;;;;;;5.32;2.92;;;8.90;63.00;;;;;;5166594;27;20198;-36
2021/04/14 08:21:37;;;;;;;3.17;2.95;;;8.80;62.00;;;;;;5165876;27;20203;-36
2021/04/14 08:24:30;;;;;;;3.30;3.10;;;8.90;61.80;;;;;;5166031;27;20343;-37
2021/04/14 08:27:02;;;;;;;5.07;3.15;;;8.80;62.60;;;;;;5153862;27;20254;-39
2021/04/14 08:29:34;;;;;;;2.90;2.70;;;8.70;64.20;;;;;;5166495;27;20205;-39
2021/04/14 08:32:10;;;;;;;4.53;3.13;;;8.60;62.10;;;;;;5166730;27;20665;-38
2021/04/14 08:34:42;;;;;;;3.75;3.05;;;8.60;61.70;;;;;;5166427;27;20269;-37
2021/04/14 08:37:19;;;;;;;3.67;3.05;;;8.50;67.50;;;;;;5164828;27;20218;-34
2021/04/14 08:39:54;;;;;;;3.75;3.17;;;8.50;68.40;;;;;;5161496;27;20234;-39
2021/04/14 08:42:31;;;;;;;3.83;3.10;;;8.40;67.60;;;;;;5165051;27;20207;-37
2021/04/14 08:45:17;;;;;;;3.30;3.10;;;8.40;70.00;;;;;;5166557;27;20199;-38
2021/04/14 08:47:52;;;;;;;4.85;3.38;;;8.30;69.80;;;;;;5165145;27;20938;-38
2021/04/14 08:50:28;;;;;;;3.45;3.15;;;8.30;72.20;;;;;;5165796;27;20182;-38
2021/04/14 08:53:03;;;;;;;3.58;3.13;;;8.20;73.40;;;;;;5165635;27;20251;-36
2021/04/14 08:55:33;;;;;;;3.70;2.95;;;8.20;72.20;;;;;;5166089;27;20222;-38
2021/04/14 08:58:03;;;;;;;3.72;3.30;;;8.10;73.90;;;;;;5164066;27;20327;-38
2021/04/14 09:00:35;;;;;;;5.40;3.05;;;8.10;74.00;;;;;;5165167;27;20334;-36
2021/04/14 09:03:08;;;;;;;3.22;2.95;;;8.00;74.60;;;;;;5164173;27;20198;-39
2021/04/14 09:05:39;;;;;;;3.25;2.90;;;8.00;77.20;;;;;;5165728;27;20266;-36
2021/04/14 09:08:12;;;;;;;3.60;3.30;;;7.90;79.50;;;;;;5163794;27;20214;-37
2021/04/14 09:10:50;;;;;;;3.47;3.17;;;7.80;78.80;;;;;;5165780;27;20255;-37
2021/04/14 09:13:32;;;;;;;3.55;3.03;;;7.80;78.50;;;;;;5163502;27;20282;-37
2021/04/14 09:16:05;;;;;;;3.72;3.25;;;7.80;79.80;;;;;;5164497;27;20278;-36
2021/04/14 09:18:40;;;;;;;5.00;3.15;;;7.70;84.30;;;;;;5164998;27;20198;-35
2021/04/14 09:21:15;;;;;;;3.67;2.65;;;7.60;86.60;;;;;;5165380;27;20194;-37
2021/04/14 09:23:55;;;;;;;4.35;2.78;;;7.60;87.20;;;;;;5165357;27;20204;-35
2021/04/14 09:26:30;;;;;;;3.17;2.88;;;7.50;87.80;;;;;;5164959;27;20187;-34
2021/04/14 09:29:01;;;;;;;3.65;2.70;;;7.50;89.10;;;;;;5164864;27;20231;-37
2021/04/14 09:31:41;;;;;;;3.47;3.17;;;7.50;88.80;;;;;;5164830;27;20228;-38
2021/04/14 09:34:31;;;;;;;3.33;2.60;;;7.50;87.40;;;;;;5165036;27;20209;-37
2021/04/14 09:37:04;;;;;;;3.35;3.05;;;7.60;84.90;;;;;;5163533;27;20270;-34
2021/04/14 09:42:48;;;;;;;4.35;2.50;;;7.80;83.10;;;;;;5163728;27;20199;-35
2021/04/14 09:45:37;;;;;;;2.88;2.67;;;8.00;80.60;;;;;;5161735;27;20187;-37
2021/04/14 09:48:19;;;;;;;4.68;2.40;;;8.00;80.50;;;;;;5164931;27;20271;-36
2021/04/14 09:50:51;;;;;;;2.72;2.60;;;8.10;79.70;;;;;;5165403;27;20289;-34
2021/04/14 09:53:30;;;;;;;2.85;2.65;;;8.20;78.60;;;;;;5164084;27;20198;-35
2021/04/14 09:56:07;;;;;;;2.72;2.53;;;8.20;78.50;;;;;;5157256;27;20218;-34
2021/04/14 09:58:45;;;;;;;3.10;2.90;;;8.30;76.90;;;;;;5163698;27;20205;-35
2021/04/14 10:01:22;;;;;;;3.30;3.03;;;8.30;77.00;;;;;;5164484;27;20194;-36
2021/04/14 10:03:58;;;;;;;3.08;2.65;;;8.40;77.40;;;;;;5164832;27;20193;-38
2021/04/14 10:06:29;;;;;;;3.10;2.80;;;8.40;78.30;;;;;;5164540;27;20182;-38
2021/04/14 10:09:03;;;;;;;2.70;2.50;;;8.20;79.10;;;;;;5164213;27;20195;-36
2021/04/14 10:11:35;;;;;;;3.40;3.10;;;8.10;81.00;;;;;;5163998;27;20198;-40
2021/04/14 10:14:14;;;;;;;3.58;2.47;;;8.00;82.50;;;;;;5163520;27;20195;-37
2021/04/14 10:16:44;;;;;;;3.45;3.15;;;7.90;83.30;;;;;;5168634;27;20340;-34
2021/04/14 10:19:26;;;;;;;2.67;2.47;;;7.90;85.50;;;;;;5168619;27;20278;-35
2021/04/14 10:21:56;;;;;;;3.35;2.70;;;7.70;85.20;;;;;;5167965;27;20190;-38
2021/04/14 10:24:26;;;;;;;2.85;2.65;;;7.70;85.20;;;;;;5168975;27;20565;-36
2021/04/14 10:26:57;;;;;;;2.97;2.67;;;7.70;86.20;;;;;;5167287;27;20495;-38
2021/04/14 10:29:31;;;;;;;3.72;2.75;;;7.70;85.30;;;;;;5168393;27;20206;-38
2021/04/14 10:32:01;;;;;;;3.13;2.67;;;7.70;86.20;;;;;;5168127;27;20210;-37
2021/04/14 10:34:35;;;;;;;2.63;2.42;;;7.80;85.50;;;;;;5167807;27;20195;-38
2021/04/14 10:37:15;;;;;;;3.38;2.63;;;7.80;85.20;;;;;;5168123;27;20247;-38
2021/04/14 10:39:46;;;;;;;6.78;3.25;;;7.90;85.40;;;;;;5168169;27;20230;-37
2021/04/14 10:42:20;;;;;;;3.38;3.10;;;7.90;85.90;;;;;;5167143;27;20199;-35
2021/04/14 10:44:51;;;;;;;3.65;3.03;;;7.90;85.50;;;;;;5168351;27;20576;-37
2021/04/14 10:47:26;;;;;;;2.90;2.70;;;7.80;85.60;;;;;;5167603;27;20206;-33
2021/04/14 10:50:05;;;;;;;3.25;2.97;;;7.80;86.00;;;;;;5167542;27;20261;-36
2021/04/14 10:52:35;;;;;;;3.17;2.97;;;7.90;85.30;;;;;;5151364;27;20198;-32
2021/04/14 10:55:12;;;;;;;4.03;3.03;;;7.90;85.60;;;;;;5168160;27;20279;-38
2021/04/14 10:57:44;;;;;;;3.35;3.15;;;7.90;85.20;;;;;;5151529;27;20221;-34
2021/04/14 11:00:16;;;;;;;3.30;2.70;;;8.00;85.20;;;;;;5160042;27;20211;-37
2021/04/14 11:02:49;;;;;;;3.97;3.00;;;8.00;84.40;;;;;;5166923;27;20231;-38
2021/04/14 11:05:22;;;;;;;4.25;2.70;;;8.00;84.60;;;;;;5167956;27;20247;-35
2021/04/14 11:07:53;;;;;;;4.05;2.88;;;8.00;84.60;;;;;;5167328;27;20247;-34
2021/04/14 11:10:26;;;;;;;2.67;2.47;;;8.00;84.10;;;;;;5150040;27;20241;-37
2021/04/14 11:12:57;;;;;;;6.88;2.63;;;8.00;84.10;;;;;;5167264;27;20186;-35
2021/04/14 11:15:32;;;;;;;2.75;2.55;;;8.10;83.50;;;;;;5167870;27;20205;-37
2021/04/14 11:18:06;;;;;;;3.28;2.97;;;8.10;82.80;;;;;;5166397;27;20206;-38
2021/04/14 11:20:48;;;;;;;2.90;2.70;;;8.10;82.60;;;;;;5167499;27;20244;-38
2021/04/14 11:23:25;;;;;;;2.67;2.47;;;8.20;81.90;;;;;;5166452;27;20215;-35
2021/04/14 11:26:09;;;;;;;3.10;2.90;;;8.20;81.70;;;;;;5166729;27;20202;-37
2021/04/14 11:28:47;;;;;;;2.95;2.75;;;8.20;81.80;;;;;;5166051;27;20269;-38
2021/04/14 11:31:32;;;;;;;2.80;2.60;;;8.20;80.80;;;;;;5149421;27;20183;-35
2021/04/14 11:34:13;;;;;;;2.70;2.50;;;8.30;81.10;;;;;;5167215;27;20322;-38
2021/04/14 11:36:59;;;;;;;4.10;2.80;;;8.20;81.90;;;;;;5166911;27;20301;-38
2021/04/14 11:39:35;;;;;;;3.25;2.97;;;8.20;82.40;;;;;;5164762;27;20278;-36
2021/04/14 11:42:15;;;;;;;3.67;3.20;;;8.10;83.10;;;;;;5166162;27;20190;-38
2021/04/14 11:44:46;;;;;;;3.28;3.00;;;8.10;82.80;;;;;;5165756;27;20641;-37
2021/04/14 11:47:26;;;;;;;3.10;2.85;;;8.10;83.10;;;;;;5166452;27;20257;-38
2021/04/14 11:50:10;;;;;;;2.90;2.60;;;8.10;81.30;;;;;;5164474;27;20194;-36
2021/04/14 11:52:49;;;;;;;2.95;2.75;;;8.20;80.00;;;;;;5167099;27;20220;-36
2021/04/14 11:55:30;;;;;;;6.10;2.67;;;8.20;79.60;;;;;;5166551;27;20202;-38
2021/04/14 11:58:03;;;;;;;3.80;3.45;;;8.20;80.20;;;;;;5164940;27;20278;-38
2021/04/14 12:00:42;;;;;;;3.10;2.80;;;8.20;80.00;;;;;;5165870;27;20247;-38
2021/04/14 12:03:26;;;;;;;3.85;2.63;;;8.20;80.10;;;;;;5165757;27;20298;-39
2021/04/14 12:05:58;;;;;;;4.97;3.25;;;8.10;80.40;;;;;;5165016;27;20210;-37
2021/04/14 12:08:30;;;;;;;3.40;2.78;;;8.10;81.20;;;;;;5166659;27;20625;-36
2021/04/14 12:11:01;;;;;;;2.97;2.70;;;8.20;80.80;;;;;;5166104;27;20669;-38
2021/04/14 12:13:31;;;;;;;2.97;2.78;;;8.20;81.20;;;;;;5162315;27;20210;-38
2021/04/14 12:16:01;;;;;;;3.03;2.67;;;8.20;80.90;;;;;;5165572;27;20534;-35
2021/04/14 12:18:31;;;;;;;3.08;2.63;;;8.20;80.80;;;;;;5165465;27;20245;-37
2021/04/14 12:21:01;;;;;;;3.15;2.88;;;8.20;82.00;;;;;;5165295;27;20213;-37
2021/04/14 12:23:33;;;;;;;2.67;2.50;;;8.20;81.80;;;;;;5162595;27;20671;-39
2021/04/14 12:26:04;;;;;;;2.90;2.70;;;8.20;81.20;;;;;;5160715;27;20542;-37
2021/04/14 12:28:35;;;;;;;3.10;2.90;;;8.20;79.80;;;;;;5165021;27;20210;-37
2021/04/14 12:31:05;;;;;;;3.08;2.85;;;8.20;79.90;;;;;;5165831;27;20198;-36
2021/04/14 12:33:50;;;;;;;4.00;2.70;;;8.20;81.30;;;;;;5165914;27;20198;-37
2021/04/14 12:36:20;;;;;;;6.35;2.67;;;8.10;81.10;;;;;;5164601;27;20218;-38
2021/04/14 12:38:51;;;;;;;2.65;2.45;;;8.10;80.90;;;;;;5166215;27;20634;-37
2021/04/14 12:41:21;;;;;;;3.58;3.30;;;8.20;80.60;;;;;;5164480;27;20255;-38
2021/04/14 12:43:52;;;;;;;6.22;2.70;;;8.10;81.60;;;;;;5165765;27;20194;-35
2021/04/14 12:46:22;;;;;;;3.22;3.03;;;8.10;81.10;;;;;;5165350;27;20206;-36
2021/04/14 12:48:52;;;;;;;2.38;2.17;;;8.10;82.20;;;;;;5165290;27;20199;-36
2021/04/14 12:51:30;;;;;;;2.53;2.33;;;8.00;82.40;;;;;;5164461;27;20199;-37
2021/04/14 12:54:15;;;;;;;2.75;2.55;;;8.00;82.50;;;;;;5165623;27;20202;-36
2021/04/14 12:56:51;;;;;;;2.55;2.35;;;8.00;84.50;;;;;;5164663;27;20222;-34
2021/04/14 12:59:24;;;;;;;2.65;2.45;;;7.90;84.30;;;;;;5164879;27;20293;-38
2021/04/14 13:01:58;;;;;;;2.90;2.70;;;7.90;83.90;;;;;;5164414;27;20201;-33
2021/04/14 13:04:35;;;;;;;2.60;2.40;;;7.90;84.20;;;;;;5154844;27;20245;-38
2021/04/14 13:07:10;;;;;;;2.60;2.50;;;7.90;84.40;;;;;;5149576;27;20285;-36
2021/04/14 13:09:41;;;;;;;2.78;2.55;;;7.80;84.60;;;;;;5164386;27;20195;-38
2021/04/14 13:12:17;;;;;;;2.70;2.50;;;7.80;84.80;;;;;;5164214;27;20231;-36
2021/04/14 13:14:47;;;;;;;2.88;2.65;;;7.80;86.60;;;;;;5164494;27;20254;-36
2021/04/14 13:17:20;;;;;;;2.50;2.30;;;7.80;85.90;;;;;;5164787;27;20218;-39
2021/04/14 13:19:50;;;;;;;3.13;2.92;;;7.80;86.90;;;;;;5160237;27;20214;-38
2021/04/14 13:22:24;;;;;;;3.40;3.10;;;7.70;87.30;;;;;;5164502;27;20228;-39
2021/04/14 13:25:03;;;;;;;5.25;2.75;;;7.70;87.00;;;;;;5164668;27;20285;-37